AL04 weather

Casale Monferrato Airport
Casale Monferrato, Piedmont, Italy

Public forecast

Using degrees Celsius for public forecast. Weather courtesy of forecast.io.

METAR (pilot weather report)

Report is more than 6 hours old.

Closest report is Cameri Air Base [MIL], 26.7 nm (49.4 km) NNE. Retrieved 2019/05/24 17:55 UTC (12 hours ago):

LIMN 241755Z 27003KT 9999 FEW025 23/14 Q1011 RMK BKN BKN200 VIS MIN 9999 BLU

TAF (pilot weather forecast)

Forecast is more than 12 hours old.

Closest forecast is Cameri Air Base [MIL], 26.7 nm (49.4 km) NNE. Retrieved 2010/11/18 12:24 UTC (9 years ago):

TAF TAF LIMN 181100Z 1812/1921 VRB03KT 1500 RA BR BKN030